createdAt,value
2023-01-07T00:01:58.872Z,101538.41
2023-01-07T00:04:26.458Z,101539.25
2023-01-07T00:06:54.372Z,101538.97
2023-01-07T00:09:22.037Z,101542.59
2023-01-07T00:11:49.643Z,101537.63
2023-01-07T00:14:17.362Z,101500.69
2023-01-07T00:16:44.976Z,101532.13
2023-01-07T00:19:15.405Z,101532.66
2023-01-07T00:21:43.368Z,101530.69
2023-01-07T00:24:12.114Z,101529.81
2023-01-07T00:26:40.579Z,101527.75
2023-01-07T00:29:09.282Z,101530.34
2023-01-07T00:31:39.992Z,101527.09
2023-01-07T00:34:09.321Z,101522.31
2023-01-07T00:36:42.736Z,101520.06
2023-01-07T00:39:15.975Z,101523.47
2023-01-07T00:42:03.103Z,101514.91
2023-01-07T00:44:31.500Z,101519.88
2023-01-07T00:46:59.996Z,101516.88
2023-01-07T00:49:28.375Z,101517.13
2023-01-07T00:51:55.989Z,101518.16
2023-01-07T00:54:23.911Z,101513.72
2023-01-07T00:56:51.648Z,101516.66
2023-01-07T00:59:19.297Z,101519.66
2023-01-07T01:01:47.085Z,101523.28
2023-01-07T01:04:15.079Z,101523.38
2023-01-07T01:06:42.704Z,101521.28
2023-01-07T01:09:10.358Z,101502.06
2023-01-07T01:11:37.965Z,101516.16
2023-01-07T01:14:05.615Z,101519.56
2023-01-07T01:16:33.210Z,101511.31
2023-01-07T01:19:00.816Z,101515.78
2023-01-07T01:21:28.609Z,101520.34
2023-01-07T01:23:56.198Z,101517.69
2023-01-07T01:26:23.888Z,101512.97
2023-01-07T01:28:51.531Z,101514.44
2023-01-07T01:31:23.485Z,101508.75
2023-01-07T01:33:55.163Z,101518.44
2023-01-07T01:36:23.996Z,101514.66
2023-01-07T01:38:53.492Z,101523.69
2023-01-07T01:41:22.004Z,101513.53
2023-01-07T01:43:52.419Z,101510.78
2023-01-07T01:46:33.993Z,101507.69
2023-01-07T01:49:22.627Z,101503.91
2023-01-07T01:52:22.350Z,101502.56
2023-01-07T01:54:57.951Z,101503.03
2023-01-07T01:57:29.056Z,101508.63
2023-01-07T01:59:59.179Z,101513.84
2023-01-07T02:02:35.089Z,101509.66
2023-01-07T02:05:03.673Z,101506.03
2023-01-07T02:07:31.320Z,101510.97
2023-01-07T02:10:11.409Z,101505.66
2023-01-07T02:13:07.605Z,101490.78
2023-01-07T02:16:05.202Z,101496.47
2023-01-07T02:18:51.538Z,101496.94
2023-01-07T02:22:23.235Z,101485.09
2023-01-07T02:25:22.920Z,101491.38
2023-01-07T02:28:08.749Z,101481.75
2023-01-07T02:31:36.583Z,101491.97
2023-01-07T02:34:12.216Z,101485.38
2023-01-07T02:36:49.921Z,101480.06
2023-01-07T02:39:36.441Z,101474.88
2023-01-07T02:42:13.108Z,101476.78
2023-01-07T02:45:08.786Z,101471.88
2023-01-07T02:47:43.323Z,101469.34
2023-01-07T02:50:11.272Z,101462.19
2023-01-07T02:52:38.916Z,101472.16
2023-01-07T02:55:27.396Z,101460.88
2023-01-07T02:58:27.907Z,101456.53
2023-01-07T03:01:17.456Z,101454.13
2023-01-07T03:04:03.341Z,101466.34
2023-01-07T03:06:54.381Z,101468.88
2023-01-07T03:09:51.157Z,101457.50
2023-01-07T03:12:37.161Z,101464.22
2023-01-07T03:15:20.473Z,101460.78
2023-01-07T03:18:08.559Z,101451.78
2023-01-07T03:20:39.116Z,101440.81
2023-01-07T03:23:10.211Z,101457.78
2023-01-07T03:25:46.528Z,101454.13
2023-01-07T03:28:20.715Z,101458.50
2023-01-07T03:30:50.647Z,101440.41
2023-01-07T03:33:36.094Z,101438.81
2023-01-07T03:36:06.660Z,101442.50
2023-01-07T03:38:37.747Z,101445.63
2023-01-07T03:41:05.606Z,101439.47
2023-01-07T03:43:33.353Z,101437.94
2023-01-07T03:46:01.015Z,101433.94
2023-01-07T03:48:29.398Z,101428.81
2023-01-07T03:50:57.118Z,101435.09
2023-01-07T03:53:24.823Z,101411.06
2023-01-07T03:55:52.883Z,101432.31
2023-01-07T03:58:20.484Z,101431.81
2023-01-07T04:00:48.154Z,101428.25
2023-01-07T04:03:19.521Z,101433.25
2023-01-07T04:05:48.298Z,101434.75
2023-01-07T04:08:15.947Z,101424.31
2023-01-07T04:10:43.606Z,101412.03
2023-01-07T04:13:13.272Z,101416.28
2023-01-07T04:15:44.628Z,101412.16
2023-01-07T04:18:12.679Z,101407.25
2023-01-07T04:20:40.341Z,101410.63
2023-01-07T04:23:08.037Z,101408.41
2023-01-07T04:25:36.213Z,101414.09
2023-01-07T04:28:06.301Z,101407.22
2023-01-07T04:30:34.512Z,101410.50
2023-01-07T04:33:02.231Z,101401.56
2023-01-07T04:35:29.872Z,101402.84
2023-01-07T04:37:57.968Z,101392.78
2023-01-07T04:40:26.449Z,101384.81
2023-01-07T04:42:54.124Z,101386.50
2023-01-07T04:45:21.845Z,101385.22
2023-01-07T04:47:49.902Z,101394.09
2023-01-07T04:50:18.147Z,101393.16
2023-01-07T04:52:47.071Z,101389.81
2023-01-07T04:55:15.026Z,101395.94
2023-01-07T04:57:43.773Z,101383.69
2023-01-07T05:00:13.690Z,101393.91
2023-01-07T05:02:42.367Z,101396.91
2023-01-07T05:05:11.971Z,101392.66
2023-01-07T05:07:40.620Z,101388.94
2023-01-07T05:10:10.240Z,101385.28
2023-01-07T05:12:37.995Z,101366.34
2023-01-07T05:15:09.007Z,101378.66
2023-01-07T05:17:39.349Z,101377.59
2023-01-07T05:20:08.212Z,101384.28
2023-01-07T05:22:37.689Z,101383.06
2023-01-07T05:25:06.314Z,101386.78
2023-01-07T05:27:33.952Z,101387.72
2023-01-07T05:30:04.324Z,101390.56
2023-01-07T05:32:31.963Z,101386.50
2023-01-07T05:34:59.560Z,101384.13
2023-01-07T05:37:27.990Z,101375.63
2023-01-07T05:39:56.368Z,101371.88
2023-01-07T05:42:24.853Z,101371.75
2023-01-07T05:44:52.559Z,101370.28
2023-01-07T05:47:20.532Z,101366.78
2023-01-07T05:49:48.084Z,101368.78
2023-01-07T05:52:15.747Z,101376.16
2023-01-07T05:54:43.359Z,101376.03
2023-01-07T05:57:11.307Z,101373.69
2023-01-07T05:59:38.957Z,101366.13
2023-01-07T06:02:06.655Z,101376.09
2023-01-07T06:04:34.365Z,101379.91
2023-01-07T06:07:02.109Z,101359.78
2023-01-07T06:09:29.950Z,101373.19
2023-01-07T06:11:57.598Z,101373.34
2023-01-07T06:14:25.257Z,101374.59
2023-01-07T06:16:52.885Z,101371.75
2023-01-07T06:19:22.321Z,101368.47
2023-01-07T06:21:50.128Z,101374.13
2023-01-07T06:24:17.742Z,101370.34
2023-01-07T06:26:45.337Z,101377.84
2023-01-07T06:29:13.002Z,101376.47
2023-01-07T06:31:40.690Z,101374.97
2023-01-07T06:34:08.506Z,101387.09
2023-01-07T06:36:36.173Z,101370.06
2023-01-07T06:39:03.760Z,101371.56
2023-01-07T06:41:31.540Z,101386.03
2023-01-07T06:43:59.138Z,101377.63
2023-01-07T06:46:26.961Z,101380.81
2023-01-07T06:48:54.552Z,101385.91
2023-01-07T06:51:22.164Z,101375.28
2023-01-07T06:53:49.745Z,101380.38
2023-01-07T06:56:17.364Z,101384.50
2023-01-07T06:58:44.930Z,101378.97
2023-01-07T07:01:12.828Z,101384.84
2023-01-07T07:03:40.516Z,101388.53
2023-01-07T07:06:08.259Z,101380.59
2023-01-07T07:08:35.841Z,101379.34
2023-01-07T07:11:03.463Z,101381.75
2023-01-07T07:13:31.109Z,101387.63
2023-01-07T07:15:58.772Z,101389.75
2023-01-07T07:18:26.985Z,101378.34
2023-01-07T07:20:54.731Z,101389.53
2023-01-07T07:23:22.291Z,101382.28
2023-01-07T07:25:49.895Z,101372.94
2023-01-07T07:28:17.488Z,101379.31
2023-01-07T07:30:46.115Z,101371.72
2023-01-07T07:33:18.858Z,101379.72
2023-01-07T07:35:47.608Z,101376.09
2023-01-07T07:38:17.612Z,101371.25
2023-01-07T07:40:46.646Z,101393.91
2023-01-07T07:43:15.621Z,101387.69
2023-01-07T07:45:44.186Z,101396.91
2023-01-07T07:48:16.265Z,101398.25
2023-01-07T07:50:43.960Z,101394.13
2023-01-07T07:53:11.682Z,101392.38
2023-01-07T07:55:40.554Z,101384.44
2023-01-07T07:58:08.169Z,101389.44
2023-01-07T08:00:35.936Z,101381.47
2023-01-07T08:03:04.580Z,101391.25
2023-01-07T08:05:32.374Z,101394.09
2023-01-07T08:08:00.283Z,101398.47
2023-01-07T08:10:28.880Z,101389.75
2023-01-07T08:12:56.463Z,101392.19
2023-01-07T08:15:24.222Z,101394.53
2023-01-07T08:18:04.195Z,101386.44
2023-01-07T08:20:32.445Z,101388.38
2023-01-07T08:23:02.322Z,101384.84
2023-01-07T08:25:31.778Z,101383.66
2023-01-07T08:28:00.504Z,101382.09
2023-01-07T08:30:29.310Z,101381.25
2023-01-07T08:32:57.340Z,101388.72
2023-01-07T08:35:25.247Z,101387.59
2023-01-07T08:37:54.107Z,101379.50
2023-01-07T08:40:21.687Z,101382.63
2023-01-07T08:42:49.304Z,101378.53
2023-01-07T08:45:17.631Z,101382.72
2023-01-07T08:47:48.560Z,101390.88
2023-01-07T08:50:16.232Z,101385.63
2023-01-07T08:52:47.205Z,101377.16
2023-01-07T08:55:14.953Z,101371.56
2023-01-07T08:57:42.745Z,101371.63
2023-01-07T09:00:11.404Z,101367.84
2023-01-07T09:02:39.199Z,101364.41
2023-01-07T09:05:07.614Z,101360.28
2023-01-07T09:07:35.180Z,101365.97
2023-01-07T09:10:03.437Z,101364.03
2023-01-07T09:12:31.441Z,101366.00
2023-01-07T09:14:59.106Z,101365.38
2023-01-07T09:17:26.815Z,101359.91
2023-01-07T09:19:54.447Z,101358.19
2023-01-07T09:22:22.489Z,101357.25
2023-01-07T09:24:50.102Z,101352.28
2023-01-07T09:27:17.710Z,101348.03
2023-01-07T09:29:45.374Z,101339.41
2023-01-07T09:32:13.068Z,101352.91
2023-01-07T09:34:40.743Z,101348.47
2023-01-07T09:37:08.435Z,101349.97
2023-01-07T09:39:36.148Z,101345.00
2023-01-07T09:42:09.708Z,101347.94
2023-01-07T09:44:52.533Z,101343.56
2023-01-07T09:47:24.784Z,101340.16
2023-01-07T09:49:59.779Z,101342.41
2023-01-07T09:52:37.153Z,101310.69
2023-01-07T09:55:28.449Z,101349.72
2023-01-07T09:57:56.098Z,101339.28
2023-01-07T10:00:24.864Z,101337.38
2023-01-07T10:03:52.276Z,101335.81
2023-01-07T10:06:43.117Z,101336.03
2023-01-07T10:09:17.671Z,101324.03
2023-01-07T10:12:30.499Z,101322.31
2023-01-07T10:15:09.841Z,101317.72
2023-01-07T10:17:59.203Z,101317.47
2023-01-07T10:20:38.609Z,101318.91
2023-01-07T10:23:31.930Z,101313.97
2023-01-07T10:26:02.338Z,101315.78
2023-01-07T10:28:44.377Z,101299.06
2023-01-07T10:31:23.505Z,101304.59
2023-01-07T10:33:52.594Z,101307.28
2023-01-07T10:36:53.385Z,101298.81
2023-01-07T10:40:11.935Z,101293.44
2023-01-07T10:42:59.403Z,101271.81
2023-01-07T10:45:57.622Z,101288.34
2023-01-07T10:48:47.068Z,101290.03
2023-01-07T10:52:07.686Z,101288.94
2023-01-07T10:55:02.710Z,101282.00
2023-01-07T10:57:31.806Z,101284.44
2023-01-07T11:00:07.892Z,101273.56
2023-01-07T11:02:37.613Z,101284.00
2023-01-07T11:05:05.902Z,101283.06
2023-01-07T11:07:46.805Z,101272.53
2023-01-07T11:10:19.108Z,101274.81
2023-01-07T11:12:50.313Z,101265.84
2023-01-07T11:15:43.265Z,101266.94
2023-01-07T11:18:21.837Z,101263.81
2023-01-07T11:20:58.409Z,101257.28
2023-01-07T11:23:44.306Z,101248.06
2023-01-07T11:26:26.625Z,101257.53
2023-01-07T11:29:23.767Z,101257.47
2023-01-07T11:32:00.605Z,101248.75
2023-01-07T11:34:35.831Z,101248.25
2023-01-07T11:37:05.536Z,101246.53
2023-01-07T11:39:35.973Z,101250.06
2023-01-07T11:42:35.579Z,101240.06
2023-01-07T11:45:27.312Z,101237.41
2023-01-07T11:48:16.720Z,101227.81
2023-01-07T11:51:08.949Z,101227.31
2023-01-07T11:53:45.575Z,101217.00
2023-01-07T11:56:20.924Z,101215.94
2023-01-07T11:59:13.322Z,101215.81
2023-01-07T12:01:47.453Z,101209.47
2023-01-07T12:04:29.009Z,101211.59
2023-01-07T12:07:07.946Z,101209.56
2023-01-07T12:09:41.270Z,101204.38
2023-01-07T12:12:39.393Z,101207.41
2023-01-07T12:15:21.049Z,101202.59
2023-01-07T12:17:59.654Z,101193.59
2023-01-07T12:20:33.264Z,101196.09
2023-01-07T12:23:44.902Z,101186.59
2023-01-07T12:26:15.135Z,101191.31
2023-01-07T12:29:12.101Z,101178.25
2023-01-07T12:32:13.734Z,101175.72
2023-01-07T12:35:15.010Z,101169.41
2023-01-07T12:37:52.836Z,101173.66
2023-01-07T12:41:00.362Z,101171.28
2023-01-07T12:43:34.869Z,101159.06
2023-01-07T12:46:13.570Z,101166.81
2023-01-07T12:49:02.446Z,101160.44
2023-01-07T12:51:57.853Z,101167.00
2023-01-07T12:54:56.110Z,101158.63
2023-01-07T12:57:30.519Z,101161.00
2023-01-07T13:00:24.547Z,101142.94
2023-01-07T13:03:28.776Z,101141.53
2023-01-07T13:06:20.022Z,101147.00
2023-01-07T13:08:59.620Z,101135.22
2023-01-07T13:12:46.109Z,101140.59
2023-01-07T13:15:29.736Z,101135.09
2023-01-07T13:18:07.823Z,101126.59
2023-01-07T13:21:07.949Z,101129.09
2023-01-07T13:24:22.400Z,101111.16
2023-01-07T13:27:32.187Z,101114.03
2023-01-07T13:30:14.194Z,101111.81
2023-01-07T13:33:04.733Z,101108.06
2023-01-07T13:35:53.128Z,101115.09
2023-01-07T13:38:39.531Z,101105.50
2023-01-07T13:41:46.806Z,101099.66
2023-01-07T13:44:43.207Z,101104.59
2023-01-07T13:47:17.446Z,101103.47
2023-01-07T13:49:56.707Z,101101.88
2023-01-07T13:52:30.876Z,101094.50
2023-01-07T13:55:26.903Z,101085.28
2023-01-07T13:57:54.491Z,101084.75
2023-01-07T14:01:00.154Z,101079.97
2023-01-07T14:03:27.642Z,101072.66
2023-01-07T14:06:27.637Z,101068.34
2023-01-07T14:09:07.288Z,101073.75
2023-01-07T14:11:41.819Z,101081.13
2023-01-07T14:14:20.469Z,101074.22
2023-01-07T14:17:19.093Z,101083.94
2023-01-07T14:20:11.070Z,101075.94
2023-01-07T14:23:00.175Z,101080.00
2023-01-07T14:25:53.102Z,101073.50
2023-01-07T14:29:08.107Z,101070.66
2023-01-07T14:31:36.672Z,101068.66
2023-01-07T14:34:23.062Z,101070.63
2023-01-07T14:37:06.264Z,101080.03
2023-01-07T14:39:38.741Z,101075.84
2023-01-07T14:42:42.144Z,101067.22
2023-01-07T14:45:40.948Z,101081.88
2023-01-07T14:48:08.474Z,101081.13
2023-01-07T14:50:58.460Z,101068.84
2023-01-07T14:54:23.183Z,101075.59
2023-01-07T14:57:05.831Z,101080.88
2023-01-07T14:59:57.131Z,101069.56
2023-01-07T15:03:08.303Z,101071.72
2023-01-07T15:06:06.683Z,101064.22
2023-01-07T15:09:09.475Z,101062.88
2023-01-07T15:11:59.578Z,101056.66
2023-01-07T15:15:11.961Z,101065.97
2023-01-07T15:17:40.516Z,101051.66
2023-01-07T15:20:10.246Z,101055.38
2023-01-07T15:23:08.515Z,101062.88
2023-01-07T15:26:04.787Z,101062.72
2023-01-07T15:29:08.765Z,101054.81
2023-01-07T15:32:08.847Z,101056.66
2023-01-07T15:34:39.446Z,101057.97
2023-01-07T15:37:08.664Z,101058.25
2023-01-07T15:39:41.292Z,101063.50
2023-01-07T15:42:21.212Z,101065.03
2023-01-07T15:44:53.577Z,101075.66
2023-01-07T15:47:37.807Z,101072.88
2023-01-07T15:50:36.586Z,101064.28
2023-01-07T15:53:29.343Z,101061.81
2023-01-07T15:56:03.926Z,101057.53
2023-01-07T15:58:41.460Z,101059.69
2023-01-07T16:01:22.383Z,101051.22
2023-01-07T16:03:54.768Z,101045.84
2023-01-07T16:06:31.573Z,101046.53
2023-01-07T16:09:04.448Z,101037.81
2023-01-07T16:11:32.254Z,101022.94
2023-01-07T16:14:03.024Z,101031.16
2023-01-07T16:16:32.624Z,101022.56
2023-01-07T16:19:03.702Z,101019.78
2023-01-07T16:21:40.268Z,101006.28
2023-01-07T16:24:07.979Z,101004.56
2023-01-07T16:26:41.129Z,101014.38
2023-01-07T16:29:24.078Z,101005.00
2023-01-07T16:31:53.176Z,101007.09
2023-01-07T16:34:23.807Z,101007.84
2023-01-07T16:36:58.254Z,100998.19
2023-01-07T16:39:32.451Z,101004.78
2023-01-07T16:42:19.481Z,100989.06
2023-01-07T16:44:49.491Z,100991.84
2023-01-07T16:47:31.450Z,100995.34
2023-01-07T16:50:19.044Z,100986.41
2023-01-07T16:52:56.003Z,100979.22
2023-01-07T16:55:49.882Z,100989.44
2023-01-07T16:58:53.077Z,100982.69
2023-01-07T17:01:34.020Z,100963.03
2023-01-07T17:04:09.527Z,100958.50
2023-01-07T17:06:42.193Z,100971.06
2023-01-07T17:09:35.609Z,100963.03
2023-01-07T17:12:04.163Z,100963.72
2023-01-07T17:14:34.448Z,100954.53
2023-01-07T17:17:17.575Z,100968.50
2023-01-07T17:20:29.798Z,100956.66
2023-01-07T17:22:57.544Z,100949.69
2023-01-07T17:25:30.854Z,100963.28
2023-01-07T17:28:06.567Z,100957.25
2023-01-07T17:30:36.480Z,100957.38
2023-01-07T17:33:04.676Z,100951.09
2023-01-07T17:35:32.371Z,100956.16
2023-01-07T17:38:00.002Z,100950.38
2023-01-07T17:40:27.672Z,100945.66
2023-01-07T17:43:14.532Z,100939.91
2023-01-07T17:45:42.170Z,100933.97
2023-01-07T17:48:14.505Z,100932.16
2023-01-07T17:50:43.706Z,100922.09
2023-01-07T17:53:23.153Z,100915.13
2023-01-07T17:55:50.898Z,100921.75
2023-01-07T17:58:34.671Z,100913.19
2023-01-07T18:01:07.220Z,100918.34
2023-01-07T18:03:35.291Z,100909.34
2023-01-07T18:06:03.460Z,100910.16
2023-01-07T18:08:31.028Z,100912.88
2023-01-07T18:11:17.396Z,100910.31
2023-01-07T18:13:44.994Z,100902.00
2023-01-07T18:16:14.287Z,100897.09
2023-01-07T18:18:41.996Z,100899.78
2023-01-07T18:21:11.602Z,100899.44
2023-01-07T18:23:39.233Z,100894.81
2023-01-07T18:26:06.998Z,100890.94
2023-01-07T18:28:34.593Z,100885.53
2023-01-07T18:31:02.238Z,100884.22
2023-01-07T18:33:29.857Z,100869.25
2023-01-07T18:35:57.433Z,100867.31
2023-01-07T18:38:25.052Z,100867.06
2023-01-07T18:40:54.983Z,100865.78
2023-01-07T18:43:22.891Z,100868.91
2023-01-07T18:45:50.445Z,100864.41
2023-01-07T18:48:18.786Z,100852.56
2023-01-07T18:50:49.477Z,100861.56
2023-01-07T18:53:18.859Z,100849.94
2023-01-07T18:55:46.645Z,100850.09
2023-01-07T18:58:16.299Z,100835.34
2023-01-07T19:00:44.225Z,100842.41
2023-01-07T19:03:12.812Z,100839.19
2023-01-07T19:05:41.052Z,100845.81
2023-01-07T19:08:08.695Z,100839.84
2023-01-07T19:10:40.732Z,100838.75
2023-01-07T19:13:08.387Z,100822.81
2023-01-07T19:15:35.992Z,100837.47
2023-01-07T19:18:03.780Z,100834.84
2023-01-07T19:20:31.359Z,100828.69
2023-01-07T19:23:01.027Z,100829.81
2023-01-07T19:25:30.645Z,100828.44
2023-01-07T19:27:58.802Z,100816.09
2023-01-07T19:30:26.563Z,100825.47
2023-01-07T19:32:54.419Z,100819.41
2023-01-07T19:35:22.003Z,100815.16
2023-01-07T19:37:50.171Z,100815.03
2023-01-07T19:40:17.918Z,100810.28
2023-01-07T19:42:45.587Z,100799.00
2023-01-07T19:45:13.209Z,100800.28
2023-01-07T19:47:41.783Z,100800.75
2023-01-07T19:50:09.908Z,100793.13
2023-01-07T19:52:37.475Z,100796.28
2023-01-07T19:55:05.854Z,100799.97
2023-01-07T19:57:34.166Z,100800.13
2023-01-07T20:00:01.905Z,100796.22
2023-01-07T20:02:33.025Z,100802.25
2023-01-07T20:05:00.711Z,100795.66
2023-01-07T20:07:33.842Z,100783.84
2023-01-07T20:10:01.914Z,100780.94
2023-01-07T20:12:29.499Z,100774.78
2023-01-07T20:14:57.121Z,100779.03
2023-01-07T20:17:25.091Z,100763.25
2023-01-07T20:19:52.724Z,100769.69
2023-01-07T20:22:20.297Z,100770.81
2023-01-07T20:24:47.925Z,100764.56
2023-01-07T20:27:15.508Z,100763.81
2023-01-07T20:29:43.150Z,100765.59
2023-01-07T20:32:10.732Z,100757.84
2023-01-07T20:34:38.316Z,100748.09
2023-01-07T20:37:05.885Z,100749.16
2023-01-07T20:39:33.442Z,100746.41
2023-01-07T20:42:01.019Z,100731.00
2023-01-07T20:44:29.459Z,100740.38
2023-01-07T20:46:56.993Z,100733.06
2023-01-07T20:49:24.581Z,100723.72
2023-01-07T20:51:52.181Z,100728.75
2023-01-07T20:54:19.803Z,100730.78
2023-01-07T20:56:47.480Z,100723.66
2023-01-07T20:59:17.128Z,100734.81
2023-01-07T21:01:44.912Z,100729.66
2023-01-07T21:04:13.004Z,100719.13
2023-01-07T21:06:41.142Z,100717.25
2023-01-07T21:09:09.036Z,100698.94
2023-01-07T21:11:36.756Z,100708.09
2023-01-07T21:14:04.326Z,100696.38
2023-01-07T21:16:32.482Z,100706.66
2023-01-07T21:19:00.563Z,100696.81
2023-01-07T21:21:28.287Z,100700.47
2023-01-07T21:23:55.961Z,100699.22
2023-01-07T21:26:24.912Z,100682.28
2023-01-07T21:28:55.999Z,100693.75
2023-01-07T21:31:25.949Z,100672.38
2023-01-07T21:33:56.445Z,100669.34
2023-01-07T21:36:26.342Z,100674.59
2023-01-07T21:38:57.687Z,100675.16
2023-01-07T21:41:26.082Z,100671.66
2023-01-07T21:43:54.894Z,100672.81
2023-01-07T21:46:22.796Z,100664.53
2023-01-07T21:48:51.794Z,100658.97
2023-01-07T21:51:26.931Z,100655.25
2023-01-07T21:53:57.082Z,100650.41
2023-01-07T21:56:32.271Z,100652.31
2023-01-07T21:59:00.437Z,100646.22
2023-01-07T22:01:29.178Z,100654.53
2023-01-07T22:03:59.327Z,100649.59
2023-01-07T22:06:33.632Z,100644.72
2023-01-07T22:09:07.579Z,100638.22
2023-01-07T22:11:38.534Z,100631.38
2023-01-07T22:14:06.292Z,100627.50
2023-01-07T22:16:34.219Z,100616.63
2023-01-07T22:19:01.866Z,100625.09
2023-01-07T22:21:30.035Z,100611.91
2023-01-07T22:23:57.881Z,100623.59
2023-01-07T22:26:25.632Z,100630.38
2023-01-07T22:28:56.306Z,100642.00
2023-01-07T22:31:26.558Z,100646.22
2023-01-07T22:33:54.843Z,100646.94
2023-01-07T22:36:34.549Z,100645.59
2023-01-07T22:39:09.700Z,100645.56
2023-01-07T22:41:37.617Z,100643.34
2023-01-07T22:44:19.373Z,100642.28
2023-01-07T22:46:49.373Z,100635.16
2023-01-07T22:49:18.276Z,100641.81
2023-01-07T22:51:49.077Z,100640.63
2023-01-07T22:54:17.474Z,100642.91
2023-01-07T22:56:45.777Z,100639.75
2023-01-07T22:59:13.400Z,100628.50
2023-01-07T23:01:41.017Z,100641.66
2023-01-07T23:04:09.258Z,100650.78
2023-01-07T23:06:37.908Z,100640.88
2023-01-07T23:09:05.824Z,100626.63
2023-01-07T23:11:48.640Z,100620.69
2023-01-07T23:14:19.771Z,100626.16
2023-01-07T23:16:48.026Z,100618.16
2023-01-07T23:19:16.856Z,100617.53
2023-01-07T23:21:46.792Z,100612.56
2023-01-07T23:24:15.008Z,100600.19
2023-01-07T23:26:43.520Z,100610.34
2023-01-07T23:29:11.163Z,100600.06
2023-01-07T23:31:39.065Z,100595.38
2023-01-07T23:34:07.345Z,100586.72
2023-01-07T23:36:38.847Z,100584.53
2023-01-07T23:39:06.967Z,100589.13
2023-01-07T23:41:34.674Z,100594.78
2023-01-07T23:44:02.406Z,100588.72
2023-01-07T23:46:30.172Z,100581.66
2023-01-07T23:48:57.741Z,100586.47
2023-01-07T23:51:25.487Z,100580.00
2023-01-07T23:53:53.590Z,100568.53
2023-01-07T23:56:21.938Z,100559.22
2023-01-07T23:58:50.211Z,100557.03
